Lancaster Airport
KLNS : now visible

Airfield :











YOU CAN JOIN US ON...

 
LOGIN :

Register | Disclaimer

   EN    FR    IT 

 









Legend :    VFR   Marginal VFR   IFR   Intensive IFR   Very Intensive IFR
Visi :
Ceiling :
>= 8 km
>= 3000ft
5 to 8 km
1000 to 3000 ft
1500m to 5 km
500 to 1000 ft
800 to 1500m
200 to 500 ft
< 800m
< 200 ft
Symbols :   Thunderstorms  Fog  Heavy snow  Heavy precipitations  Wind > 20 kt






- Airport Elevation : 403 ft
- IATA code : LNS


KLNS - Lancaster

CURRENT METAR :
  • 181053Z 00000KT 10SM OVC110 M05/M13 A3058 RMK AO2 SLP362 T10501128

EXPIRED METARs :
  • 180953Z AUTO 11003KT 10SM BKN110 M05/M13 A3060 RMK AO2 SLP368 T10501128
  • 180853Z AUTO 09003KT 10SM CLR M05/M13 A3062 RMK AO2 SLP373 T10501128 55012

TAF KLNS
Valid from the 18 at 11:00 until the 19 at 06:00 UTC


181037Z 1811/1906 11003KT P6SM BKN110
FM181500 13005KT 1SM -SN OVC012
FM181530 13004KT P6SM SCT010 BKN025
FM181800 14006KT 2SM -SN OVC007
FM182200 16010G20KT 3SM -SNPL BR OVC007
FM190000 17011KT 3SM BR OVC007 WS020/21046KT



MET'MAP, your aeronautical weather chart ! - Copyright ORBIFLY December 2007 - Disclaimer

ORBIFLY MET'MAP TEAM :

Programming & Development : Alexandra Zaïnal
Concept & original design : Baudouin d'Aumeries
Assistance for programming : Marc-Olivier Méhu
Technical & hardware support : Manuel Goepfert

Contact : metmap@orbifly.com




SOURCES & CREDITS :

   NOAA       Earth
Advisory